createdAt,value
2022-09-28T00:01:08.222Z,2.00
2022-09-28T00:03:36.749Z,1.95
2022-09-28T00:06:06.898Z,2.88
2022-09-28T00:08:36.648Z,2.55
2022-09-28T00:11:05.918Z,2.13
2022-09-28T00:13:34.117Z,2.63
2022-09-28T00:16:05.133Z,2.53
2022-09-28T00:18:33.977Z,2.40
2022-09-28T00:21:03.436Z,2.25
2022-09-28T00:23:31.497Z,1.92
2022-09-28T00:26:04.732Z,2.15
2022-09-28T00:28:33.239Z,2.70
2022-09-28T00:31:01.327Z,2.13
2022-09-28T00:33:29.404Z,1.92
2022-09-28T00:35:58.858Z,1.98
2022-09-28T00:38:30.548Z,1.98
2022-09-28T00:40:59.624Z,2.83
2022-09-28T00:43:29.189Z,1.88
2022-09-28T00:46:02.299Z,2.05
2022-09-28T00:48:35.066Z,1.83
2022-09-28T00:51:07.372Z,1.40
2022-09-28T00:53:38.144Z,2.13
2022-09-28T00:56:09.070Z,1.80
2022-09-28T00:58:44.825Z,1.80
2022-09-28T01:01:13.037Z,1.52
2022-09-28T01:03:45.289Z,2.80
2022-09-28T01:06:18.839Z,2.70
2022-09-28T01:08:50.567Z,1.85
2022-09-28T01:11:19.908Z,2.03
2022-09-28T01:13:52.318Z,1.83
2022-09-28T01:16:33.871Z,2.08
2022-09-28T01:19:13.664Z,2.17
2022-09-28T01:21:52.922Z,2.10
2022-09-28T01:24:40.196Z,2.20
2022-09-28T01:27:16.639Z,2.00
2022-09-28T01:29:53.718Z,2.17
2022-09-28T01:32:37.382Z,1.92
2022-09-28T01:35:10.230Z,1.70
2022-09-28T01:37:53.772Z,2.10
2022-09-28T01:40:24.033Z,2.10
2022-09-28T01:42:56.954Z,1.75
2022-09-28T01:45:28.608Z,1.95
2022-09-28T01:48:00.795Z,2.05
2022-09-28T01:50:32.206Z,1.92
2022-09-28T01:53:05.428Z,2.28
2022-09-28T01:55:37.348Z,1.63
2022-09-28T01:58:13.306Z,2.00
2022-09-28T02:00:45.687Z,2.00
2022-09-28T02:03:17.723Z,1.80
2022-09-28T02:05:50.628Z,1.90
2022-09-28T02:08:26.850Z,1.75
2022-09-28T02:11:02.874Z,1.88
2022-09-28T02:13:36.069Z,2.22
2022-09-28T02:16:07.986Z,2.47
2022-09-28T02:18:36.338Z,1.85
2022-09-28T02:21:12.080Z,2.58
2022-09-28T02:23:43.590Z,1.70
2022-09-28T02:26:15.053Z,1.83
2022-09-28T02:28:44.587Z,1.80
2022-09-28T02:31:12.676Z,1.90
2022-09-28T02:33:44.621Z,2.13
2022-09-28T02:36:12.907Z,1.80
2022-09-28T02:38:41.002Z,1.50
2022-09-28T02:41:19.280Z,1.90
2022-09-28T02:44:01.053Z,1.70
2022-09-28T02:46:33.879Z,1.85
2022-09-28T02:49:21.890Z,1.90
2022-09-28T02:52:07.937Z,1.67
2022-09-28T02:54:48.512Z,1.70
2022-09-28T02:57:28.633Z,1.75
2022-09-28T03:00:05.764Z,1.90
2022-09-28T03:02:40.316Z,2.03
2022-09-28T03:05:16.046Z,1.88
2022-09-28T03:07:51.148Z,1.55
2022-09-28T03:10:26.864Z,1.73
2022-09-28T03:12:55.796Z,2.35
2022-09-28T03:15:29.016Z,1.92
2022-09-28T03:17:57.661Z,2.08
2022-09-28T03:20:25.993Z,1.45
2022-09-28T03:23:19.743Z,1.90
2022-09-28T03:25:42.168Z,1.60
2022-09-28T03:28:10.223Z,2.00
2022-09-28T03:30:39.548Z,1.88
2022-09-28T03:33:07.471Z,1.98
2022-09-28T03:35:35.503Z,1.70
2022-09-28T03:38:03.526Z,1.73
2022-09-28T03:40:31.695Z,2.78
2022-09-28T03:43:00.946Z,2.35
2022-09-28T03:45:29.040Z,2.10
2022-09-28T03:47:58.392Z,1.90
2022-09-28T03:50:26.331Z,2.33
2022-09-28T03:52:54.492Z,2.15
2022-09-28T03:55:22.473Z,2.85
2022-09-28T03:57:55.650Z,3.13
2022-09-28T04:00:24.070Z,3.03
2022-09-28T04:02:52.090Z,2.60
2022-09-28T04:05:21.419Z,2.78
2022-09-28T04:07:49.597Z,2.45
2022-09-28T04:10:18.021Z,2.70
2022-09-28T04:12:46.184Z,3.47
2022-09-28T04:15:14.842Z,2.40
2022-09-28T04:17:43.340Z,2.40
2022-09-28T04:20:11.308Z,3.72
2022-09-28T04:22:40.683Z,3.78
2022-09-28T04:25:09.282Z,3.00
2022-09-28T04:27:58.706Z,3.50
2022-09-28T04:30:26.758Z,3.65
2022-09-28T04:32:54.902Z,3.78
2022-09-28T04:35:22.892Z,3.30
2022-09-28T04:37:52.232Z,3.38
2022-09-28T04:40:20.232Z,3.53
2022-09-28T04:42:54.878Z,3.08
2022-09-28T04:45:23.171Z,3.13
2022-09-28T04:47:51.207Z,3.92
2022-09-28T04:50:19.392Z,3.47
2022-09-28T04:52:47.414Z,3.92
2022-09-28T04:55:17.029Z,4.25
2022-09-28T04:57:45.003Z,4.18
2022-09-28T05:00:14.234Z,4.05
2022-09-28T05:02:42.196Z,3.70
2022-09-28T05:05:10.403Z,4.35
2022-09-28T05:07:38.363Z,4.07
2022-09-28T05:10:06.907Z,4.05
2022-09-28T05:12:36.311Z,5.28
2022-09-28T05:15:04.931Z,3.92
2022-09-28T05:17:32.911Z,4.45
2022-09-28T05:20:02.907Z,4.32
2022-09-28T05:22:30.916Z,4.57
2022-09-28T05:25:00.304Z,3.90
2022-09-28T05:27:28.289Z,4.43
2022-09-28T05:29:57.681Z,4.50
2022-09-28T05:32:25.662Z,4.43
2022-09-28T05:34:55.587Z,5.15
2022-09-28T05:37:23.602Z,4.45
2022-09-28T05:39:51.682Z,5.00
2022-09-28T05:42:19.680Z,5.68
2022-09-28T05:44:47.693Z,4.43
2022-09-28T05:47:17.103Z,5.28
2022-09-28T05:49:45.215Z,4.20
2022-09-28T05:52:13.210Z,4.38
2022-09-28T05:54:41.155Z,4.82
2022-09-28T05:57:09.145Z,4.80
2022-09-28T05:59:37.282Z,4.45
2022-09-28T06:02:06.662Z,4.93
2022-09-28T06:04:36.182Z,4.78
2022-09-28T06:07:04.272Z,5.40
2022-09-28T06:09:32.317Z,5.13
2022-09-28T06:12:00.478Z,4.90
2022-09-28T06:14:28.442Z,5.22
2022-09-28T06:16:56.415Z,5.20
2022-09-28T06:19:24.423Z,4.82
2022-09-28T06:21:53.717Z,4.40
2022-09-28T06:24:21.690Z,5.55
2022-09-28T06:26:49.660Z,4.90
2022-09-28T06:29:19.602Z,4.82
2022-09-28T06:31:48.286Z,4.75
2022-09-28T06:34:16.816Z,4.82
2022-09-28T06:36:44.859Z,5.53
2022-09-28T06:39:14.243Z,5.50
2022-09-28T06:41:42.799Z,5.00
2022-09-28T06:44:11.022Z,7.93
2022-09-28T06:46:40.192Z,5.57
2022-09-28T06:49:09.303Z,5.60
2022-09-28T06:51:37.726Z,4.30
2022-09-28T06:54:05.835Z,5.28
2022-09-28T06:56:35.206Z,5.30
2022-09-28T06:59:05.448Z,5.32
2022-09-28T07:01:33.527Z,5.07
2022-09-28T07:04:01.917Z,5.40
2022-09-28T07:06:31.507Z,5.07
2022-09-28T07:09:22.826Z,4.38
2022-09-28T07:11:52.656Z,4.85
2022-09-28T07:14:41.471Z,5.05
2022-09-28T07:17:14.033Z,4.50
2022-09-28T07:19:42.379Z,5.65
2022-09-28T07:22:18.513Z,5.35
2022-09-28T07:24:47.744Z,5.00
2022-09-28T07:27:17.199Z,3.55
2022-09-28T07:29:45.119Z,5.28
2022-09-28T07:32:13.058Z,4.18
2022-09-28T07:34:43.894Z,3.97
2022-09-28T07:37:13.229Z,4.55
2022-09-28T07:39:55.246Z,4.57
2022-09-28T07:42:25.036Z,4.00
2022-09-28T07:44:53.253Z,3.85
2022-09-28T07:47:30.804Z,4.03
2022-09-28T07:50:01.975Z,5.72
2022-09-28T07:52:30.046Z,4.50
2022-09-28T07:54:58.126Z,4.97
2022-09-28T07:57:27.695Z,3.97
2022-09-28T07:59:56.019Z,5.88
2022-09-28T08:02:24.396Z,4.30
2022-09-28T08:04:53.173Z,4.53
2022-09-28T08:07:24.229Z,4.20
2022-09-28T08:09:52.416Z,4.10
2022-09-28T08:12:21.125Z,3.95
2022-09-28T08:14:52.287Z,3.40
2022-09-28T08:17:20.479Z,4.35
2022-09-28T08:20:05.783Z,3.45
2022-09-28T08:22:34.069Z,3.40
2022-09-28T08:25:02.003Z,3.75
2022-09-28T08:27:30.018Z,2.95
2022-09-28T08:29:59.437Z,3.45
2022-09-28T08:32:29.715Z,3.90
2022-09-28T08:34:57.870Z,3.03
2022-09-28T08:37:25.963Z,2.67
2022-09-28T08:39:53.961Z,3.13
2022-09-28T08:42:34.047Z,2.75
2022-09-28T08:45:08.998Z,3.35
2022-09-28T08:48:12.507Z,2.65
2022-09-28T08:50:49.605Z,3.08
2022-09-28T08:53:32.402Z,3.60
2022-09-28T08:56:04.661Z,3.38
2022-09-28T08:58:37.454Z,2.95
2022-09-28T09:01:10.045Z,3.72
2022-09-28T09:03:41.876Z,4.05
2022-09-28T09:06:19.037Z,2.75
2022-09-28T09:09:00.101Z,3.38
2022-09-28T09:11:44.470Z,3.35
2022-09-28T09:14:36.128Z,3.08
2022-09-28T09:17:13.541Z,3.17
2022-09-28T09:19:52.417Z,3.38
2022-09-28T09:22:39.190Z,3.47
2022-09-28T09:25:19.271Z,3.15
2022-09-28T09:28:02.108Z,2.85
2022-09-28T09:30:37.214Z,4.13
2022-09-28T09:33:34.361Z,3.15
2022-09-28T09:36:18.162Z,3.00
2022-09-28T09:38:58.109Z,3.05
2022-09-28T09:41:39.477Z,3.03
2022-09-28T09:44:32.674Z,3.40
2022-09-28T09:47:07.787Z,3.83
2022-09-28T09:49:41.309Z,3.90
2022-09-28T09:52:15.809Z,3.30
2022-09-28T09:54:48.989Z,3.15
2022-09-28T09:57:21.546Z,3.70
2022-09-28T09:59:50.369Z,3.40
2022-09-28T10:02:25.608Z,2.63
2022-09-28T10:04:58.341Z,3.63
2022-09-28T10:07:30.963Z,3.88
2022-09-28T10:10:01.052Z,3.60
2022-09-28T10:12:31.154Z,2.60
2022-09-28T10:14:59.192Z,3.33
2022-09-28T10:17:27.799Z,2.72
2022-09-28T10:19:57.861Z,3.15
2022-09-28T10:22:28.485Z,3.08
2022-09-28T10:24:59.227Z,2.92
2022-09-28T10:27:30.956Z,2.78
2022-09-28T10:30:02.973Z,2.45
2022-09-28T10:32:39.181Z,3.00
2022-09-28T10:35:22.725Z,2.75
2022-09-28T10:37:55.087Z,2.90
2022-09-28T10:40:40.091Z,2.90
2022-09-28T10:43:19.881Z,2.90
2022-09-28T10:45:48.539Z,2.88
2022-09-28T10:48:22.224Z,2.97
2022-09-28T10:51:05.585Z,2.63
2022-09-28T10:53:37.038Z,2.75
2022-09-28T10:56:08.121Z,2.40
2022-09-28T10:58:40.667Z,2.92
2022-09-28T11:01:11.616Z,2.60
2022-09-28T11:03:50.846Z,3.03
2022-09-28T11:06:27.470Z,3.30
2022-09-28T11:08:59.364Z,3.25
2022-09-28T11:11:29.194Z,3.38
2022-09-28T11:14:01.136Z,2.50
2022-09-28T11:16:31.759Z,2.50
2022-09-28T11:19:04.835Z,2.83
2022-09-28T11:21:43.486Z,2.00
2022-09-28T11:24:21.539Z,2.67
2022-09-28T11:26:52.599Z,2.10
2022-09-28T11:29:27.682Z,2.53
2022-09-28T11:32:01.556Z,2.40
2022-09-28T11:34:57.472Z,2.45
2022-09-28T11:38:01.853Z,2.60
2022-09-28T11:40:46.466Z,2.55
2022-09-28T11:43:37.452Z,2.45
2022-09-28T11:46:15.991Z,2.70
2022-09-28T11:48:47.098Z,2.30
2022-09-28T11:51:21.740Z,3.50
2022-09-28T11:53:54.581Z,3.45
2022-09-28T11:56:34.451Z,4.82
2022-09-28T11:59:07.279Z,3.15
2022-09-28T12:01:41.359Z,3.22
2022-09-28T12:04:14.855Z,3.08
2022-09-28T12:06:50.800Z,3.47
2022-09-28T12:09:26.023Z,3.03
2022-09-28T12:12:01.658Z,3.75
2022-09-28T12:14:33.501Z,2.80
2022-09-28T12:17:08.518Z,3.15
2022-09-28T12:19:42.260Z,3.13
2022-09-28T12:22:17.102Z,2.45
2022-09-28T12:24:48.507Z,2.80
2022-09-28T12:27:22.716Z,3.17
2022-09-28T12:29:56.157Z,2.85
2022-09-28T12:32:30.504Z,3.50
2022-09-28T12:34:59.195Z,3.17
2022-09-28T12:37:39.906Z,2.75
2022-09-28T12:40:25.012Z,3.53
2022-09-28T12:43:07.239Z,3.28
2022-09-28T12:46:10.544Z,3.03
2022-09-28T12:52:09.013Z,2.30
2022-09-28T12:55:12.243Z,2.90
2022-09-28T12:57:53.748Z,2.25
2022-09-28T13:00:25.206Z,2.50
2022-09-28T13:03:20.279Z,2.53
2022-09-28T13:06:16.903Z,2.40
2022-09-28T13:08:55.343Z,2.38
2022-09-28T13:11:33.566Z,2.70
2022-09-28T13:14:26.896Z,2.30
2022-09-28T13:17:01.169Z,1.95
2022-09-28T13:19:38.799Z,2.53
2022-09-28T13:22:25.470Z,2.80
2022-09-28T13:24:57.192Z,2.17
2022-09-28T13:27:31.045Z,2.92
2022-09-28T13:30:02.419Z,3.08
2022-09-28T13:32:33.042Z,2.63
2022-09-28T13:35:02.599Z,2.50
2022-09-28T13:37:30.997Z,3.28
2022-09-28T13:39:59.452Z,3.35
2022-09-28T13:42:48.455Z,2.70
2022-09-28T13:45:35.224Z,2.63
2022-09-28T13:48:15.393Z,2.63
2022-09-28T13:51:04.973Z,2.88
2022-09-28T13:53:47.609Z,3.35
2022-09-28T13:56:28.445Z,2.97
2022-09-28T13:59:01.560Z,3.83
2022-09-28T14:01:33.953Z,2.83
2022-09-28T14:04:17.534Z,2.83
2022-09-28T14:06:53.527Z,3.30
2022-09-28T14:09:40.945Z,3.13
2022-09-28T14:12:30.735Z,3.17
2022-09-28T14:14:59.008Z,3.53
2022-09-28T14:18:02.277Z,2.88
2022-09-28T14:20:32.565Z,3.28
2022-09-28T14:23:37.830Z,3.83
2022-09-28T14:26:41.944Z,3.70
2022-09-28T14:29:22.762Z,3.55
2022-09-28T14:31:50.856Z,3.40
2022-09-28T14:34:31.286Z,2.47
2022-09-28T14:37:33.917Z,2.40
2022-09-28T14:40:26.860Z,2.10
2022-09-28T14:43:24.702Z,2.67
2022-09-28T14:46:14.499Z,2.15
2022-09-28T14:48:47.861Z,2.70
2022-09-28T14:52:01.876Z,2.13
2022-09-28T14:54:46.874Z,2.10
2022-09-28T14:57:19.567Z,1.90
2022-09-28T14:59:48.268Z,2.58
2022-09-28T15:02:24.733Z,2.90
2022-09-28T15:04:55.968Z,2.28
2022-09-28T15:07:26.920Z,2.50
2022-09-28T15:09:57.699Z,2.17
2022-09-28T15:12:29.707Z,2.40
2022-09-28T15:15:01.327Z,2.78
2022-09-28T15:17:37.030Z,2.78
2022-09-28T15:20:23.273Z,3.33
2022-09-28T15:22:54.874Z,2.45
2022-09-28T15:25:26.087Z,2.28
2022-09-28T15:27:55.942Z,2.70
2022-09-28T15:30:27.546Z,2.92
2022-09-28T15:33:17.587Z,3.25
2022-09-28T15:35:48.211Z,3.10
2022-09-28T15:38:18.623Z,2.95
2022-09-28T15:40:48.574Z,2.80
2022-09-28T15:43:27.172Z,2.78
2022-09-28T15:46:02.669Z,2.88
2022-09-28T15:48:33.587Z,3.33
2022-09-28T15:51:10.312Z,2.85
2022-09-28T15:53:44.690Z,3.22
2022-09-28T15:56:14.375Z,3.35
2022-09-28T15:58:42.926Z,3.20
2022-09-28T16:01:35.879Z,3.72
2022-09-28T16:04:48.072Z,3.58
2022-09-28T16:07:34.792Z,3.60
2022-09-28T16:10:23.495Z,3.75
2022-09-28T16:12:57.282Z,4.15
2022-09-28T16:15:28.947Z,3.50
2022-09-28T16:18:00.662Z,3.97
2022-09-28T16:20:32.175Z,4.72
2022-09-28T16:23:05.904Z,4.40
2022-09-28T16:25:39.220Z,4.05
2022-09-28T16:28:25.238Z,4.38
2022-09-28T16:31:03.080Z,4.18
2022-09-28T16:33:39.066Z,5.03
2022-09-28T16:36:14.067Z,4.35
2022-09-28T16:38:45.444Z,4.20
2022-09-28T16:41:14.373Z,4.57
2022-09-28T16:43:43.786Z,4.75
2022-09-28T16:46:14.012Z,5.35
2022-09-28T16:48:48.732Z,4.90
2022-09-28T16:51:17.012Z,4.57
2022-09-28T16:54:02.802Z,5.10
2022-09-28T16:56:30.938Z,5.40
2022-09-28T16:59:02.271Z,6.03
2022-09-28T17:01:31.392Z,6.55
2022-09-28T17:03:59.484Z,5.90
2022-09-28T17:06:28.587Z,6.53
2022-09-28T17:08:58.712Z,6.35
2022-09-28T17:11:26.758Z,5.68
2022-09-28T17:13:58.852Z,5.95
2022-09-28T17:19:24.053Z,6.82
2022-09-28T17:21:54.053Z,6.65
2022-09-28T17:24:22.262Z,6.05
2022-09-28T17:26:51.942Z,4.47
2022-09-28T17:29:20.600Z,6.05
2022-09-28T17:31:50.170Z,5.68
2022-09-28T17:34:19.500Z,5.35
2022-09-28T17:36:48.352Z,5.78
2022-09-28T17:39:18.675Z,5.50
2022-09-28T17:41:47.158Z,5.00
2022-09-28T17:44:15.811Z,5.10
2022-09-28T17:46:47.386Z,4.82
2022-09-28T17:49:17.499Z,5.28
2022-09-28T17:51:45.564Z,5.03
2022-09-28T17:54:16.700Z,5.20
2022-09-28T17:56:44.769Z,5.47
2022-09-28T17:59:15.004Z,5.05
2022-09-28T18:01:43.378Z,6.10
2022-09-28T18:04:33.321Z,5.68
2022-09-28T18:07:03.281Z,5.85
2022-09-28T18:09:31.284Z,6.18
2022-09-28T18:12:01.626Z,6.30
2022-09-28T18:14:30.175Z,5.70
2022-09-28T18:16:59.446Z,4.72
2022-09-28T18:19:31.799Z,4.60
2022-09-28T18:22:01.425Z,5.22
2022-09-28T18:24:32.564Z,4.65
2022-09-28T18:27:01.076Z,5.38
2022-09-28T18:29:33.090Z,5.55
2022-09-28T18:32:01.967Z,4.78
2022-09-28T18:34:30.057Z,5.15
2022-09-28T18:36:58.197Z,5.63
2022-09-28T18:39:26.618Z,5.95
2022-09-28T18:41:56.239Z,5.53
2022-09-28T18:44:24.289Z,4.95
2022-09-28T18:46:52.317Z,6.95
2022-09-28T18:49:20.600Z,5.78
2022-09-28T18:51:48.827Z,6.97
2022-09-28T18:54:17.331Z,7.32
2022-09-28T18:56:45.397Z,6.75
2022-09-28T18:59:15.284Z,7.22
2022-09-28T19:01:43.744Z,6.28
2022-09-28T19:04:13.479Z,6.80
2022-09-28T19:06:44.403Z,6.53
2022-09-28T19:09:13.119Z,6.57
2022-09-28T19:11:41.472Z,5.65
2022-09-28T19:14:11.092Z,5.45
2022-09-28T19:16:40.716Z,6.05
2022-09-28T19:19:10.027Z,5.05
2022-09-28T19:21:38.176Z,5.35
2022-09-28T19:24:06.927Z,5.45
2022-09-28T19:26:35.376Z,5.68
2022-09-28T19:29:03.807Z,6.47
2022-09-28T19:31:32.667Z,5.60
2022-09-28T19:34:02.183Z,5.75
2022-09-28T19:36:30.893Z,5.25
2022-09-28T19:39:02.205Z,6.00
2022-09-28T19:41:44.299Z,6.03
2022-09-28T19:44:24.786Z,5.97
2022-09-28T19:46:54.754Z,5.68
2022-09-28T19:49:26.156Z,5.38
2022-09-28T19:52:14.356Z,5.40
2022-09-28T19:54:44.930Z,5.53
2022-09-28T19:57:15.961Z,5.95
2022-09-28T19:59:44.520Z,5.32
2022-09-28T20:02:14.066Z,6.00
2022-09-28T20:04:44.715Z,5.43
2022-09-28T20:07:12.833Z,5.43
2022-09-28T20:09:40.990Z,5.43
2022-09-28T20:12:09.848Z,5.88
2022-09-28T20:14:40.283Z,5.65
2022-09-28T20:17:08.907Z,5.75
2022-09-28T20:19:36.884Z,5.32
2022-09-28T20:22:06.247Z,5.05
2022-09-28T20:24:34.372Z,5.30
2022-09-28T20:27:02.914Z,5.90
2022-09-28T20:29:33.545Z,6.38
2022-09-28T20:32:03.816Z,4.78
2022-09-28T20:34:33.374Z,6.47
2022-09-28T20:37:01.447Z,5.18
2022-09-28T20:39:30.954Z,4.75
2022-09-28T20:41:59.053Z,6.13
2022-09-28T20:44:27.092Z,6.18
2022-09-28T20:46:56.709Z,6.32
2022-09-28T20:49:24.748Z,6.03
2022-09-28T20:51:52.854Z,6.22
2022-09-28T20:54:22.150Z,6.00
2022-09-28T20:56:51.652Z,5.55
2022-09-28T20:59:20.326Z,6.68
2022-09-28T21:01:48.474Z,5.70
2022-09-28T21:04:16.631Z,5.80
2022-09-28T21:06:44.882Z,5.40
2022-09-28T21:09:13.379Z,5.85
2022-09-28T21:11:41.714Z,5.85
2022-09-28T21:14:11.277Z,6.90
2022-09-28T21:16:39.951Z,5.53
2022-09-28T21:19:08.016Z,4.60
2022-09-28T21:21:36.126Z,4.72
2022-09-28T21:24:04.532Z,4.40
2022-09-28T21:26:33.043Z,5.53
2022-09-28T21:29:02.817Z,5.35
2022-09-28T21:31:38.247Z,4.65
2022-09-28T21:34:06.371Z,5.47
2022-09-28T21:36:34.548Z,4.85
2022-09-28T21:39:05.024Z,4.03
2022-09-28T21:41:36.341Z,4.70
2022-09-28T21:44:04.464Z,4.15
2022-09-28T21:46:34.740Z,3.97
2022-09-28T21:49:03.240Z,4.80
2022-09-28T21:51:32.171Z,4.55
2022-09-28T21:54:00.256Z,4.43
2022-09-28T21:56:28.608Z,4.00
2022-09-28T21:58:56.655Z,3.73
2022-09-28T22:01:26.647Z,3.80
2022-09-28T22:03:57.760Z,3.70
2022-09-28T22:06:28.997Z,3.40
2022-09-28T22:08:57.035Z,3.67
2022-09-28T22:11:26.325Z,5.00
2022-09-28T22:13:55.817Z,4.67
2022-09-28T22:16:25.950Z,4.10
2022-09-28T22:18:55.407Z,3.67
2022-09-28T22:21:25.351Z,4.07
2022-09-28T22:23:53.866Z,4.00
2022-09-28T22:26:24.640Z,3.90
2022-09-28T22:28:54.560Z,2.92
2022-09-28T22:31:24.541Z,4.50
2022-09-28T22:33:52.803Z,3.87
2022-09-28T22:36:22.274Z,3.60
2022-09-28T22:38:50.436Z,4.07
2022-09-28T22:41:20.829Z,4.10
2022-09-28T22:43:49.714Z,4.00
2022-09-28T22:46:19.768Z,3.87
2022-09-28T22:48:52.097Z,3.67
2022-09-28T22:51:22.292Z,4.15
2022-09-28T22:53:50.329Z,3.60
2022-09-28T22:56:19.355Z,4.15
2022-09-28T22:58:47.834Z,3.72
2022-09-28T23:01:18.546Z,3.55
2022-09-28T23:03:47.111Z,4.07
2022-09-28T23:06:17.129Z,4.40
2022-09-28T23:08:47.429Z,3.80
2022-09-28T23:11:16.354Z,4.13
2022-09-28T23:13:44.538Z,3.37
2022-09-28T23:16:15.010Z,3.73
2022-09-28T23:18:43.650Z,3.37
2022-09-28T23:21:13.019Z,4.03
2022-09-28T23:23:41.041Z,4.20
2022-09-28T23:26:14.992Z,3.35
2022-09-28T23:28:43.706Z,3.25
2022-09-28T23:31:13.740Z,3.55
2022-09-28T23:33:42.096Z,3.88
2022-09-28T23:36:10.809Z,4.33
2022-09-28T23:38:39.026Z,4.40
2022-09-28T23:41:07.133Z,4.43
2022-09-28T23:43:36.763Z,4.10
2022-09-28T23:46:05.900Z,3.95
2022-09-28T23:48:34.092Z,4.45
2022-09-28T23:51:02.513Z,3.58
2022-09-28T23:53:32.168Z,4.20
2022-09-28T23:56:00.165Z,3.40
2022-09-28T23:58:28.597Z,4.38
